Weather at Dubai International Airport

Public forecast

Using degrees Celsius for public forecast. Weather courtesy of forecast.io.

Current aviation weather report (METAR) for Dubai International Airport

Retrieved 2022/01/29 13:00 UTC (6 minutes ago):

OMDB 291300Z 30009KT 260V320 CAVOK 23/11 Q1018 NOSIG

Aviation forecast (TAF) for Dubai International Airport

Retrieved 2022/01/29 12:00 UTC (1 hour ago):

TAF OMDB 291100Z 2912/3018 30010KT CAVOK BECMG 2916/2918 22005KT PROB30 3002/3005 4000 HZ BECMG 3006/3008 30010KT